createdAt,value
2024-01-06T00:00:14.277Z,18.75
2024-01-06T00:03:17.513Z,18.65
2024-01-06T00:06:20.541Z,18.63
2024-01-06T00:09:23.575Z,18.62
2024-01-06T00:12:28.317Z,18.62
2024-01-06T00:15:31.524Z,18.68
2024-01-06T00:18:34.763Z,18.65
2024-01-06T00:21:37.826Z,18.67
2024-01-06T00:24:40.843Z,18.66
2024-01-06T00:27:46.924Z,18.67
2024-01-06T00:30:50.473Z,18.70
2024-01-06T00:33:53.645Z,18.69
2024-01-06T00:36:56.709Z,18.68
2024-01-06T00:39:59.715Z,18.61
2024-01-06T00:43:04.064Z,18.61
2024-01-06T00:46:07.109Z,18.58
2024-01-06T00:49:10.141Z,18.54
2024-01-06T00:52:13.307Z,18.52
2024-01-06T00:55:16.247Z,18.43
2024-01-06T00:58:20.803Z,18.40
2024-01-06T01:01:23.842Z,18.35
2024-01-06T01:04:27.342Z,18.29
2024-01-06T01:07:30.438Z,18.41
2024-01-06T01:10:33.358Z,18.29
2024-01-06T01:13:37.767Z,18.14
2024-01-06T01:16:40.775Z,18.10
2024-01-06T01:19:43.880Z,18.03
2024-01-06T01:22:47.014Z,17.98
2024-01-06T01:25:49.920Z,17.95
2024-01-06T01:28:54.371Z,17.92
2024-01-06T01:31:57.557Z,17.91
2024-01-06T01:35:00.630Z,17.87
2024-01-06T01:38:03.993Z,17.85
2024-01-06T01:41:06.952Z,17.86
2024-01-06T01:44:11.322Z,17.80
2024-01-06T01:47:16.196Z,17.74
2024-01-06T01:50:21.414Z,17.71
2024-01-06T01:53:26.971Z,17.68
2024-01-06T01:56:30.377Z,17.68
2024-01-06T01:59:35.727Z,17.63
2024-01-06T02:02:38.710Z,17.61
2024-01-06T02:05:41.748Z,17.58
2024-01-06T02:08:44.711Z,17.53
2024-01-06T02:11:47.671Z,17.52
2024-01-06T02:14:52.056Z,17.50
2024-01-06T02:17:55.127Z,17.46
2024-01-06T02:21:00.082Z,17.57
2024-01-06T02:24:04.529Z,17.43
2024-01-06T02:27:07.514Z,17.44
2024-01-06T02:30:11.634Z,17.35
2024-01-06T02:33:14.913Z,17.43
2024-01-06T02:36:18.043Z,17.49
2024-01-06T02:39:25.025Z,17.57
2024-01-06T02:42:28.048Z,17.62
2024-01-06T02:45:31.112Z,17.69
2024-01-06T02:48:34.201Z,17.80
2024-01-06T02:51:37.332Z,17.92
2024-01-06T02:54:41.774Z,17.94
2024-01-06T02:57:44.782Z,18.03
2024-01-06T03:00:47.903Z,18.06
2024-01-06T03:03:51.035Z,18.08
2024-01-06T03:06:55.114Z,18.16
2024-01-06T03:09:59.616Z,18.28
2024-01-06T03:13:02.675Z,18.27
2024-01-06T03:16:06.496Z,18.29
2024-01-06T03:19:09.560Z,18.32
2024-01-06T03:22:15.330Z,18.29
2024-01-06T03:25:19.645Z,18.37
2024-01-06T03:28:22.638Z,18.37
2024-01-06T03:31:25.768Z,18.33
2024-01-06T03:34:28.867Z,18.36
2024-01-06T03:37:31.829Z,18.38
2024-01-06T03:40:36.152Z,18.40
2024-01-06T03:43:39.089Z,18.43
2024-01-06T03:46:42.080Z,18.39
2024-01-06T03:49:45.122Z,18.50
2024-01-06T03:52:49.970Z,18.51
2024-01-06T03:55:54.370Z,18.49
2024-01-06T03:58:57.311Z,18.55
2024-01-06T04:02:00.708Z,18.55
2024-01-06T04:05:03.612Z,18.58
2024-01-06T04:08:06.753Z,18.62
2024-01-06T04:11:11.133Z,18.65
2024-01-06T04:14:14.079Z,18.67
2024-01-06T04:17:17.026Z,18.69
2024-01-06T04:20:20.113Z,18.65
2024-01-06T04:23:26.039Z,18.69
2024-01-06T04:26:30.796Z,18.67
2024-01-06T04:29:33.791Z,18.70
2024-01-06T04:32:36.859Z,18.62
2024-01-06T04:35:39.862Z,18.57
2024-01-06T04:38:42.841Z,18.47
2024-01-06T04:41:47.179Z,18.52
2024-01-06T04:44:50.194Z,18.48
2024-01-06T04:47:54.012Z,18.50
2024-01-06T04:50:57.028Z,18.47
2024-01-06T04:53:59.987Z,18.46
2024-01-06T04:57:05.569Z,18.39
2024-01-06T05:00:09.048Z,18.35
2024-01-06T05:03:12.138Z,18.26
2024-01-06T05:06:15.229Z,18.18
2024-01-06T05:09:18.216Z,18.11
2024-01-06T05:12:22.669Z,18.00
2024-01-06T05:15:25.691Z,17.97
2024-01-06T05:18:28.870Z,17.90
2024-01-06T05:21:31.960Z,17.90
2024-01-06T05:24:34.944Z,17.88
2024-01-06T05:27:40.357Z,17.82
2024-01-06T05:30:44.447Z,17.80
2024-01-06T05:33:47.594Z,17.78
2024-01-06T05:36:50.732Z,17.74
2024-01-06T05:39:53.828Z,17.71
2024-01-06T05:42:58.301Z,17.69
2024-01-06T05:46:01.366Z,17.63
2024-01-06T05:49:04.687Z,17.60
2024-01-06T05:52:07.799Z,17.58
2024-01-06T05:55:11.577Z,17.52
2024-01-06T05:58:16.061Z,17.46
2024-01-06T06:01:22.316Z,17.40
2024-01-06T06:04:26.940Z,17.37
2024-01-06T06:07:30.025Z,17.36
2024-01-06T06:10:42.408Z,17.27
2024-01-06T06:13:46.790Z,17.27
2024-01-06T06:16:50.805Z,17.24
2024-01-06T06:19:53.793Z,17.20
2024-01-06T06:22:56.752Z,17.20
2024-01-06T06:26:00.551Z,17.16
2024-01-06T06:29:04.964Z,17.15
2024-01-06T06:32:09.173Z,17.12
2024-01-06T06:35:12.067Z,17.09
2024-01-06T06:38:15.009Z,17.07
2024-01-06T06:41:18.383Z,17.06
2024-01-06T06:44:22.777Z,17.07
2024-01-06T06:47:25.748Z,16.94
2024-01-06T06:50:28.653Z,16.92
2024-01-06T06:53:31.624Z,16.87
2024-01-06T06:56:35.092Z,16.89
2024-01-06T06:59:40.525Z,16.85
2024-01-06T07:02:43.572Z,16.84
2024-01-06T07:05:46.569Z,16.78
2024-01-06T07:08:49.602Z,16.79
2024-01-06T07:11:52.576Z,16.79
2024-01-06T07:14:56.888Z,16.74
2024-01-06T07:17:59.939Z,16.73
2024-01-06T07:21:04.036Z,16.71
2024-01-06T07:24:07.163Z,16.67
2024-01-06T07:27:10.102Z,16.63
2024-01-06T07:30:17.857Z,16.68
2024-01-06T07:33:21.353Z,16.65
2024-01-06T07:36:24.396Z,16.68
2024-01-06T07:39:27.411Z,16.64
2024-01-06T07:42:30.468Z,16.60
2024-01-06T07:45:34.953Z,16.60
2024-01-06T07:48:38.182Z,16.60
2024-01-06T07:51:41.259Z,16.59
2024-01-06T07:54:44.221Z,16.56
2024-01-06T07:57:47.253Z,16.53
2024-01-06T08:00:51.850Z,16.52
2024-01-06T08:03:55.014Z,16.53
2024-01-06T08:06:58.203Z,16.51
2024-01-06T08:10:01.349Z,16.50
2024-01-06T08:13:05.109Z,16.47
2024-01-06T08:16:09.622Z,16.42
2024-01-06T08:19:12.777Z,16.45
2024-01-06T08:22:15.974Z,16.43
2024-01-06T08:25:19.315Z,16.41
2024-01-06T08:28:24.396Z,16.40
2024-01-06T08:31:28.872Z,16.39
2024-01-06T08:34:33.434Z,16.40
2024-01-06T08:37:36.668Z,16.39
2024-01-06T08:40:39.674Z,16.39
2024-01-06T08:43:42.633Z,16.37
2024-01-06T08:46:46.960Z,16.38
2024-01-06T08:49:50.072Z,16.53
2024-01-06T08:52:53.218Z,16.63
2024-01-06T08:55:56.212Z,16.71
2024-01-06T08:58:59.924Z,16.79
2024-01-06T09:02:04.377Z,16.86
2024-01-06T09:05:07.870Z,16.90
2024-01-06T09:08:10.843Z,16.99
2024-01-06T09:11:13.821Z,17.11
2024-01-06T09:14:16.732Z,17.09
2024-01-06T09:17:21.237Z,17.22
2024-01-06T09:20:25.281Z,17.24
2024-01-06T09:23:28.256Z,17.26
2024-01-06T09:26:31.378Z,17.32
2024-01-06T09:29:36.348Z,17.36
2024-01-06T09:32:41.130Z,17.38
2024-01-06T09:35:45.047Z,17.45
2024-01-06T09:38:47.997Z,17.44
2024-01-06T09:41:50.991Z,17.51
2024-01-06T09:44:54.117Z,17.53
2024-01-06T09:47:59.530Z,17.52
2024-01-06T09:51:04.202Z,17.57
2024-01-06T09:54:09.902Z,17.60
2024-01-06T09:57:12.888Z,17.60
2024-01-06T10:00:16.414Z,17.66
2024-01-06T10:03:20.926Z,17.67
2024-01-06T10:06:24.000Z,17.69
2024-01-06T10:09:30.211Z,17.73
2024-01-06T10:12:33.599Z,17.75
2024-01-06T10:15:38.368Z,17.70
2024-01-06T10:18:43.037Z,17.68
2024-01-06T10:21:46.444Z,17.64
2024-01-06T10:24:49.446Z,17.52
2024-01-06T10:27:55.212Z,17.50
2024-01-06T10:30:58.771Z,17.43
2024-01-06T10:34:03.944Z,17.34
2024-01-06T10:37:08.219Z,17.34
2024-01-06T10:40:12.179Z,17.33
2024-01-06T10:43:15.648Z,17.30
2024-01-06T10:46:20.830Z,17.29
2024-01-06T10:49:26.384Z,17.26
2024-01-06T10:52:30.353Z,17.23
2024-01-06T10:55:34.212Z,17.22
2024-01-06T10:58:43.835Z,17.22
2024-01-06T11:01:48.101Z,17.18
2024-01-06T11:04:52.923Z,17.12
2024-01-06T11:08:00.962Z,17.11
2024-01-06T11:11:04.291Z,17.07
2024-01-06T11:14:19.951Z,17.05
2024-01-06T11:17:46.068Z,17.03
2024-01-06T11:21:04.219Z,16.99
2024-01-06T11:24:16.211Z,16.95
2024-01-06T11:27:23.936Z,16.94
2024-01-06T11:30:28.169Z,16.87
2024-01-06T11:33:32.380Z,16.86
2024-01-06T11:36:35.519Z,16.84
2024-01-06T11:39:40.359Z,16.79
2024-01-06T11:42:44.104Z,16.80
2024-01-06T11:45:47.164Z,16.79
2024-01-06T11:48:53.346Z,16.77
2024-01-06T11:51:56.555Z,16.75
2024-01-06T11:55:01.351Z,16.69
2024-01-06T11:58:05.510Z,16.68
2024-01-06T12:01:08.654Z,16.63
2024-01-06T12:04:16.061Z,16.64
2024-01-06T12:07:19.379Z,16.68
2024-01-06T12:10:24.234Z,16.74
2024-01-06T12:13:28.136Z,16.80
2024-01-06T12:16:33.362Z,16.84
2024-01-06T12:19:39.634Z,16.90
2024-01-06T12:22:45.315Z,17.04
2024-01-06T12:25:50.924Z,17.10
2024-01-06T12:28:54.019Z,17.20
2024-01-06T12:31:57.291Z,17.27
2024-01-06T12:35:00.530Z,17.31
2024-01-06T12:41:12.768Z,17.35
2024-01-06T12:44:15.825Z,17.36
2024-01-06T12:47:18.906Z,17.48
2024-01-06T12:50:21.912Z,17.48
2024-01-06T12:53:24.956Z,17.49
2024-01-06T12:56:29.268Z,17.53
2024-01-06T12:59:32.609Z,17.58
2024-01-06T13:02:35.613Z,17.59
2024-01-06T13:05:38.645Z,17.60
2024-01-06T13:08:41.773Z,17.66
2024-01-06T13:11:47.505Z,17.69
2024-01-06T13:14:50.814Z,17.69
2024-01-06T13:17:54.017Z,17.73
2024-01-06T13:20:57.186Z,17.71
2024-01-06T13:24:02.481Z,17.72
2024-01-06T13:27:06.946Z,17.72
2024-01-06T13:30:11.479Z,17.74
2024-01-06T13:33:14.590Z,17.76
2024-01-06T13:36:19.253Z,17.77
2024-01-06T13:41:58.967Z,17.98
2024-01-06T13:45:04.510Z,17.92
2024-01-06T13:48:10.444Z,17.98
2024-01-06T13:51:13.893Z,17.99
2024-01-06T13:54:19.394Z,18.14
2024-01-06T13:57:24.657Z,18.03
2024-01-06T14:00:28.511Z,18.02
2024-01-06T14:03:31.741Z,18.00
2024-01-06T14:06:35.227Z,18.13
2024-01-06T14:09:38.448Z,18.07
2024-01-06T14:12:42.899Z,18.21
2024-01-06T14:15:46.136Z,18.24
2024-01-06T14:18:49.539Z,18.21
2024-01-06T14:21:52.904Z,18.18
2024-01-06T14:24:56.005Z,18.22
2024-01-06T14:28:00.670Z,18.19
2024-01-06T14:31:03.731Z,18.18
2024-01-06T14:34:07.038Z,18.34
2024-01-06T14:37:10.096Z,18.16
2024-01-06T14:40:14.122Z,18.10
2024-01-06T14:43:24.451Z,18.03
2024-01-06T14:46:27.481Z,18.02
2024-01-06T14:49:30.543Z,17.93
2024-01-06T14:52:33.531Z,18.09
2024-01-06T14:55:36.521Z,17.93
2024-01-06T14:58:40.903Z,17.74
2024-01-06T15:01:45.091Z,17.77
2024-01-06T15:04:48.313Z,17.82
2024-01-06T15:07:51.371Z,17.86
2024-01-06T15:10:54.364Z,17.75
2024-01-06T15:13:58.731Z,17.84
2024-01-06T15:17:02.183Z,17.78
2024-01-06T15:20:05.358Z,17.87
2024-01-06T15:23:08.297Z,17.68
2024-01-06T15:26:11.502Z,17.66
2024-01-06T15:29:16.178Z,17.58
2024-01-06T15:32:19.612Z,17.50
2024-01-06T15:35:24.228Z,17.51
2024-01-06T15:38:28.559Z,17.43
2024-01-06T15:41:31.506Z,17.61
2024-01-06T15:44:36.859Z,17.42
2024-01-06T15:47:42.751Z,17.33
2024-01-06T15:50:45.737Z,17.31
2024-01-06T15:53:48.721Z,17.24
2024-01-06T15:56:51.975Z,17.18
2024-01-06T15:59:56.518Z,17.16
2024-01-06T16:03:00.284Z,17.13
2024-01-06T16:06:03.425Z,17.15
2024-01-06T16:09:07.706Z,17.11
2024-01-06T16:12:11.756Z,17.06
2024-01-06T16:15:16.413Z,17.08
2024-01-06T16:18:21.006Z,17.07
2024-01-06T16:21:25.076Z,17.02
2024-01-06T16:24:29.780Z,16.96
2024-01-06T16:27:32.806Z,16.97
2024-01-06T16:30:37.266Z,16.97
2024-01-06T16:33:40.371Z,16.92
2024-01-06T16:36:43.781Z,16.87
2024-01-06T16:39:46.828Z,16.86
2024-01-06T16:45:57.796Z,16.81
2024-01-06T16:49:03.950Z,16.83
2024-01-06T16:52:07.265Z,16.74
2024-01-06T16:55:10.858Z,16.80
2024-01-06T16:58:13.970Z,16.76
2024-01-06T17:01:18.555Z,16.75
2024-01-06T17:04:21.698Z,16.69
2024-01-06T17:07:25.458Z,16.94
2024-01-06T17:10:30.413Z,16.68
2024-01-06T17:13:33.342Z,17.11
2024-01-06T17:16:37.736Z,16.74
2024-01-06T17:19:40.866Z,16.63
2024-01-06T17:22:46.015Z,16.62
2024-01-06T17:25:48.982Z,16.60
2024-01-06T17:28:52.035Z,16.57
2024-01-06T17:31:57.396Z,16.56
2024-01-06T17:35:00.597Z,16.59
2024-01-06T17:38:03.588Z,16.58
2024-01-06T17:41:07.077Z,16.49
2024-01-06T17:44:10.747Z,16.52
2024-01-06T17:47:16.483Z,16.49
2024-01-06T17:50:19.527Z,16.67
2024-01-06T17:53:22.807Z,16.74
2024-01-06T17:56:25.802Z,16.84
2024-01-06T17:59:28.761Z,16.85
2024-01-06T18:02:35.542Z,17.06
2024-01-06T18:05:40.927Z,17.10
2024-01-06T18:08:43.856Z,17.18
2024-01-06T18:11:48.739Z,17.20
2024-01-06T18:14:51.797Z,17.29
2024-01-06T18:17:56.154Z,17.30
2024-01-06T18:20:59.117Z,17.34
2024-01-06T18:24:02.187Z,17.39
2024-01-06T18:27:05.308Z,17.56
2024-01-06T18:30:08.921Z,17.07
2024-01-06T18:33:13.339Z,16.06
2024-01-06T18:36:16.387Z,15.78
2024-01-06T18:39:19.814Z,17.07
2024-01-06T18:42:25.766Z,17.53
2024-01-06T18:45:28.944Z,17.51
2024-01-06T18:48:33.509Z,17.54
2024-01-06T18:51:39.766Z,17.64
2024-01-06T18:54:43.311Z,17.63
2024-01-06T18:57:46.389Z,17.64
2024-01-06T19:00:49.489Z,17.73
2024-01-06T19:03:53.937Z,17.69
2024-01-06T19:06:58.577Z,17.66
2024-01-06T19:10:01.830Z,17.58
2024-01-06T19:13:09.402Z,17.53
2024-01-06T19:16:12.309Z,17.46
2024-01-06T19:19:19.898Z,17.42
2024-01-06T19:22:24.871Z,17.40
2024-01-06T19:25:27.912Z,17.42
2024-01-06T19:28:30.930Z,17.35
2024-01-06T19:31:33.927Z,17.36
2024-01-06T19:34:38.820Z,17.40
2024-01-06T19:37:42.081Z,17.35
2024-01-06T19:40:45.504Z,17.32
2024-01-06T19:43:48.478Z,17.31
2024-01-06T19:46:51.473Z,17.30
2024-01-06T19:49:55.885Z,17.25
2024-01-06T19:52:58.877Z,17.20
2024-01-06T19:56:02.886Z,17.15
2024-01-06T19:59:06.967Z,17.16
2024-01-06T20:02:10.000Z,17.12
2024-01-06T20:05:14.822Z,17.08
2024-01-06T20:08:18.058Z,17.04
2024-01-06T20:11:21.241Z,17.01
2024-01-06T20:14:24.243Z,16.99
2024-01-06T20:17:27.310Z,16.92
2024-01-06T20:20:31.744Z,16.90
2024-01-06T20:23:34.778Z,16.84
2024-01-06T20:26:37.740Z,16.87
2024-01-06T20:29:40.689Z,16.84
2024-01-06T20:32:43.822Z,16.83
2024-01-06T20:35:48.480Z,16.77
2024-01-06T20:38:53.074Z,16.77
2024-01-06T20:41:56.163Z,16.75
2024-01-06T20:44:59.123Z,16.76
2024-01-06T20:48:02.306Z,16.70
2024-01-06T20:51:09.119Z,16.68
2024-01-06T20:54:12.167Z,16.64
2024-01-06T20:57:18.019Z,16.62
2024-01-06T21:00:21.239Z,16.64
2024-01-06T21:03:24.343Z,16.58
2024-01-06T21:06:28.807Z,16.72
2024-01-06T21:09:31.823Z,16.83
2024-01-06T21:12:36.410Z,16.93
2024-01-06T21:15:39.634Z,17.09
2024-01-06T21:18:42.705Z,17.23
2024-01-06T21:21:47.191Z,17.34
2024-01-06T21:24:51.343Z,17.44
2024-01-06T21:27:54.435Z,17.53
2024-01-06T21:30:57.450Z,17.57
2024-01-06T21:34:00.987Z,17.63
2024-01-06T21:37:05.602Z,17.72
2024-01-06T21:40:09.883Z,17.76
2024-01-06T21:43:13.080Z,17.82
2024-01-06T21:46:16.083Z,17.87
2024-01-06T21:49:19.275Z,17.96
2024-01-06T21:52:23.645Z,17.98
2024-01-06T21:55:26.593Z,18.23
2024-01-06T21:58:29.561Z,18.29
2024-01-06T22:01:33.099Z,18.05
2024-01-06T22:04:36.121Z,18.26
2024-01-06T22:07:40.548Z,18.30
2024-01-06T22:10:43.589Z,18.25
2024-01-06T22:13:46.589Z,18.17
2024-01-06T22:16:49.592Z,18.23
2024-01-06T22:19:52.557Z,18.28
2024-01-06T22:22:57.918Z,18.29
2024-01-06T22:26:00.967Z,18.34
2024-01-06T22:29:04.504Z,18.34
2024-01-06T22:32:09.187Z,18.37
2024-01-06T22:35:12.349Z,18.36
2024-01-06T22:38:16.750Z,18.42
2024-01-06T22:41:19.716Z,18.62
2024-01-06T22:44:22.686Z,18.54
2024-01-06T22:47:25.720Z,18.53
2024-01-06T22:50:30.990Z,18.52
2024-01-06T22:53:35.385Z,18.55
2024-01-06T22:56:38.271Z,18.75
2024-01-06T22:59:41.239Z,18.67
2024-01-06T23:02:44.215Z,18.59
2024-01-06T23:05:48.456Z,18.64
2024-01-06T23:08:53.295Z,18.67
2024-01-06T23:11:56.231Z,18.77
2024-01-06T23:14:59.216Z,18.87
2024-01-06T23:18:02.271Z,18.81
2024-01-06T23:21:06.810Z,18.81
2024-01-06T23:24:11.218Z,18.87
2024-01-06T23:27:14.334Z,18.79
2024-01-06T23:30:18.585Z,18.86
2024-01-06T23:33:21.865Z,18.90
2024-01-06T23:36:25.097Z,18.97
2024-01-06T23:39:29.525Z,18.92
2024-01-06T23:42:32.514Z,18.98
2024-01-06T23:45:35.534Z,19.04
2024-01-06T23:48:38.518Z,19.00
2024-01-06T23:51:41.566Z,18.97
2024-01-06T23:54:46.115Z,19.13
2024-01-06T23:57:49.111Z,19.08
